sensor_id;sensor_type;location;lat;lon;timestamp;P1;durP1;ratioP1;P2;durP2;ratioP2
4355;SDS011;64374;51.482;7.408;2023-03-14T00:00:06;2.47;;;1.40;;
4355;SDS011;64374;51.482;7.408;2023-03-14T00:02:37;12.37;;;2.23;;
4355;SDS011;64374;51.482;7.408;2023-03-14T00:05:06;5.67;;;1.90;;
4355;SDS011;64374;51.482;7.408;2023-03-14T00:07:38;3.03;;;1.60;;
4355;SDS011;64374;51.482;7.408;2023-03-14T00:10:08;4.30;;;1.80;;
4355;SDS011;64374;51.482;7.408;2023-03-14T00:12:39;8.13;;;1.90;;
4355;SDS011;64374;51.482;7.408;2023-03-14T00:15:08;3.13;;;1.33;;
4355;SDS011;64374;51.482;7.408;2023-03-14T00:17:37;4.10;;;1.50;;
4355;SDS011;64374;51.482;7.408;2023-03-14T00:20:06;4.10;;;1.83;;
4355;SDS011;64374;51.482;7.408;2023-03-14T00:22:40;4.30;;;1.33;;
4355;SDS011;64374;51.482;7.408;2023-03-14T00:25:09;6.43;;;2.20;;
4355;SDS011;64374;51.482;7.408;2023-03-14T00:27:38;6.43;;;1.70;;
4355;SDS011;64374;51.482;7.408;2023-03-14T00:30:07;8.93;;;2.00;;
4355;SDS011;64374;51.482;7.408;2023-03-14T00:32:37;6.50;;;1.73;;
4355;SDS011;64374;51.482;7.408;2023-03-14T00:35:05;5.37;;;1.70;;
4355;SDS011;64374;51.482;7.408;2023-03-14T00:37:34;4.63;;;1.80;;
4355;SDS011;64374;51.482;7.408;2023-03-14T00:40:09;4.30;;;1.70;;
4355;SDS011;64374;51.482;7.408;2023-03-14T00:42:38;3.17;;;1.63;;
4355;SDS011;64374;51.482;7.408;2023-03-14T00:45:07;8.27;;;1.77;;
4355;SDS011;64374;51.482;7.408;2023-03-14T00:47:37;4.00;;;1.53;;
4355;SDS011;64374;51.482;7.408;2023-03-14T00:50:07;5.93;;;2.60;;
4355;SDS011;64374;51.482;7.408;2023-03-14T00:52:37;4.47;;;1.67;;
4355;SDS011;64374;51.482;7.408;2023-03-14T00:55:07;3.63;;;1.70;;
4355;SDS011;64374;51.482;7.408;2023-03-14T00:57:36;6.53;;;2.30;;
4355;SDS011;64374;51.482;7.408;2023-03-14T01:00:05;6.10;;;1.50;;
4355;SDS011;64374;51.482;7.408;2023-03-14T01:02:38;5.57;;;2.13;;
4355;SDS011;64374;51.482;7.408;2023-03-14T01:05:07;5.40;;;1.70;;
4355;SDS011;64374;51.482;7.408;2023-03-14T01:07:37;6.27;;;1.70;;
4355;SDS011;64374;51.482;7.408;2023-03-14T01:10:08;8.43;;;1.73;;
4355;SDS011;64374;51.482;7.408;2023-03-14T01:12:39;4.83;;;1.77;;
4355;SDS011;64374;51.482;7.408;2023-03-14T01:15:08;7.57;;;1.47;;
4355;SDS011;64374;51.482;7.408;2023-03-14T01:17:37;11.20;;;1.90;;
4355;SDS011;64374;51.482;7.408;2023-03-14T01:20:07;9.30;;;2.30;;
4355;SDS011;64374;51.482;7.408;2023-03-14T01:22:38;4.10;;;1.80;;
4355;SDS011;64374;51.482;7.408;2023-03-14T01:25:10;7.17;;;2.27;;
4355;SDS011;64374;51.482;7.408;2023-03-14T01:27:45;5.03;;;1.43;;
4355;SDS011;64374;51.482;7.408;2023-03-14T01:30:14;2.20;;;1.07;;
4355;SDS011;64374;51.482;7.408;2023-03-14T01:32:43;4.23;;;1.37;;
4355;SDS011;64374;51.482;7.408;2023-03-14T01:35:12;5.33;;;1.10;;
4355;SDS011;64374;51.482;7.408;2023-03-14T01:37:41;3.03;;;1.20;;
4355;SDS011;64374;51.482;7.408;2023-03-14T01:40:16;4.23;;;1.27;;
4355;SDS011;64374;51.482;7.408;2023-03-14T01:42:46;3.10;;;1.10;;
4355;SDS011;64374;51.482;7.408;2023-03-14T01:48:31;4.20;;;1.80;;
4355;SDS011;64374;51.482;7.408;2023-03-14T01:51:03;4.20;;;1.20;;
4355;SDS011;64374;51.482;7.408;2023-03-14T01:53:34;3.67;;;1.20;;
4355;SDS011;64374;51.482;7.408;2023-03-14T01:56:06;1.53;;;1.00;;
4355;SDS011;64374;51.482;7.408;2023-03-14T01:58:37;2.50;;;1.03;;
4355;SDS011;64374;51.482;7.408;2023-03-14T02:01:08;8.33;;;1.37;;
4355;SDS011;64374;51.482;7.408;2023-03-14T02:03:38;4.53;;;1.27;;
4355;SDS011;64374;51.482;7.408;2023-03-14T02:06:15;3.23;;;1.57;;
4355;SDS011;64374;51.482;7.408;2023-03-14T02:08:49;4.67;;;1.27;;
4355;SDS011;64374;51.482;7.408;2023-03-14T02:11:25;4.00;;;1.20;;
4355;SDS011;64374;51.482;7.408;2023-03-14T02:14:02;7.73;;;2.23;;
4355;SDS011;64374;51.482;7.408;2023-03-14T02:16:56;5.50;;;1.70;;
4355;SDS011;64374;51.482;7.408;2023-03-14T02:20:00;6.53;;;1.73;;
4355;SDS011;64374;51.482;7.408;2023-03-14T02:22:44;6.43;;;1.67;;
4355;SDS011;64374;51.482;7.408;2023-03-14T02:25:14;8.13;;;1.60;;
4355;SDS011;64374;51.482;7.408;2023-03-14T02:27:48;4.33;;;1.10;;
4355;SDS011;64374;51.482;7.408;2023-03-14T02:30:19;5.00;;;1.00;;
4355;SDS011;64374;51.482;7.408;2023-03-14T02:32:51;3.63;;;1.30;;
4355;SDS011;64374;51.482;7.408;2023-03-14T02:35:23;3.63;;;1.30;;
4355;SDS011;64374;51.482;7.408;2023-03-14T02:37:55;3.90;;;1.20;;
4355;SDS011;64374;51.482;7.408;2023-03-14T02:40:35;9.60;;;1.93;;
4355;SDS011;64374;51.482;7.408;2023-03-14T02:43:05;6.27;;;1.63;;
4355;SDS011;64374;51.482;7.408;2023-03-14T02:45:40;5.33;;;2.33;;
4355;SDS011;64374;51.482;7.408;2023-03-14T02:48:22;6.10;;;1.63;;
4355;SDS011;64374;51.482;7.408;2023-03-14T02:50:54;5.93;;;1.77;;
4355;SDS011;64374;51.482;7.408;2023-03-14T02:53:26;6.53;;;1.37;;
4355;SDS011;64374;51.482;7.408;2023-03-14T02:56:00;9.87;;;1.70;;
4355;SDS011;64374;51.482;7.408;2023-03-14T02:58:32;9.63;;;1.90;;
4355;SDS011;64374;51.482;7.408;2023-03-14T03:01:17;3.87;;;1.03;;
4355;SDS011;64374;51.482;7.408;2023-03-14T03:03:45;7.10;;;1.93;;
4355;SDS011;64374;51.482;7.408;2023-03-14T03:06:14;4.00;;;1.57;;
4355;SDS011;64374;51.482;7.408;2023-03-14T03:08:43;6.37;;;1.73;;
4355;SDS011;64374;51.482;7.408;2023-03-14T03:11:11;8.13;;;2.80;;
4355;SDS011;64374;51.482;7.408;2023-03-14T03:13:41;5.17;;;1.60;;
4355;SDS011;64374;51.482;7.408;2023-03-14T03:16:11;7.70;;;1.40;;
4355;SDS011;64374;51.482;7.408;2023-03-14T03:18:40;7.40;;;1.90;;
4355;SDS011;64374;51.482;7.408;2023-03-14T03:21:08;15.50;;;1.70;;
4355;SDS011;64374;51.482;7.408;2023-03-14T03:23:37;3.20;;;1.10;;
4355;SDS011;64374;51.482;7.408;2023-03-14T03:26:08;2.70;;;1.40;;
4355;SDS011;64374;51.482;7.408;2023-03-14T03:28:41;11.63;;;2.03;;
4355;SDS011;64374;51.482;7.408;2023-03-14T03:31:11;4.23;;;1.10;;
4355;SDS011;64374;51.482;7.408;2023-03-14T03:33:40;3.80;;;1.60;;
4355;SDS011;64374;51.482;7.408;2023-03-14T03:36:09;2.13;;;1.50;;
4355;SDS011;64374;51.482;7.408;2023-03-14T03:38:39;7.03;;;1.50;;
4355;SDS011;64374;51.482;7.408;2023-03-14T03:41:08;5.30;;;1.47;;
4355;SDS011;64374;51.482;7.408;2023-03-14T03:43:37;6.37;;;1.43;;
4355;SDS011;64374;51.482;7.408;2023-03-14T03:46:10;5.00;;;1.70;;
4355;SDS011;64374;51.482;7.408;2023-03-14T03:48:40;3.80;;;1.40;;
4355;SDS011;64374;51.482;7.408;2023-03-14T03:51:12;8.50;;;1.57;;
4355;SDS011;64374;51.482;7.408;2023-03-14T03:53:42;2.53;;;1.23;;
4355;SDS011;64374;51.482;7.408;2023-03-14T03:56:14;8.23;;;1.70;;
4355;SDS011;64374;51.482;7.408;2023-03-14T03:58:44;4.40;;;1.67;;
4355;SDS011;64374;51.482;7.408;2023-03-14T04:01:14;9.53;;;1.77;;
4355;SDS011;64374;51.482;7.408;2023-03-14T04:03:46;4.07;;;1.20;;
4355;SDS011;64374;51.482;7.408;2023-03-14T04:06:14;9.40;;;2.17;;
4355;SDS011;64374;51.482;7.408;2023-03-14T04:08:46;5.80;;;1.90;;
4355;SDS011;64374;51.482;7.408;2023-03-14T04:11:31;5.23;;;1.70;;
4355;SDS011;64374;51.482;7.408;2023-03-14T04:14:11;4.77;;;1.60;;
4355;SDS011;64374;51.482;7.408;2023-03-14T04:16:41;10.30;;;1.90;;
4355;SDS011;64374;51.482;7.408;2023-03-14T04:19:30;9.50;;;1.77;;
4355;SDS011;64374;51.482;7.408;2023-03-14T04:21:58;8.03;;;1.47;;
4355;SDS011;64374;51.482;7.408;2023-03-14T04:24:47;2.30;;;1.00;;
4355;SDS011;64374;51.482;7.408;2023-03-14T04:27:17;3.60;;;1.27;;
4355;SDS011;64374;51.482;7.408;2023-03-14T04:29:47;3.43;;;1.00;;
4355;SDS011;64374;51.482;7.408;2023-03-14T04:32:23;1.93;;;1.10;;
4355;SDS011;64374;51.482;7.408;2023-03-14T04:34:52;1.83;;;1.10;;
4355;SDS011;64374;51.482;7.408;2023-03-14T04:37:21;3.20;;;1.10;;
4355;SDS011;64374;51.482;7.408;2023-03-14T04:39:50;2.87;;;1.30;;
4355;SDS011;64374;51.482;7.408;2023-03-14T04:42:26;0.90;;;0.90;;
4355;SDS011;64374;51.482;7.408;2023-03-14T04:44:56;1.90;;;0.90;;
4355;SDS011;64374;51.482;7.408;2023-03-14T04:47:28;1.23;;;0.80;;
4355;SDS011;64374;51.482;7.408;2023-03-14T04:49:57;1.87;;;0.80;;
4355;SDS011;64374;51.482;7.408;2023-03-14T04:52:26;1.80;;;1.33;;
4355;SDS011;64374;51.482;7.408;2023-03-14T04:54:56;3.90;;;1.17;;
4355;SDS011;64374;51.482;7.408;2023-03-14T04:57:26;3.27;;;1.30;;
4355;SDS011;64374;51.482;7.408;2023-03-14T04:59:58;4.80;;;1.40;;
4355;SDS011;64374;51.482;7.408;2023-03-14T05:02:49;2.90;;;1.00;;
4355;SDS011;64374;51.482;7.408;2023-03-14T05:05:20;1.90;;;1.40;;
4355;SDS011;64374;51.482;7.408;2023-03-14T05:08:03;3.63;;;1.33;;
4355;SDS011;64374;51.482;7.408;2023-03-14T05:10:55;2.33;;;1.20;;
4355;SDS011;64374;51.482;7.408;2023-03-14T05:13:34;2.37;;;1.23;;
4355;SDS011;64374;51.482;7.408;2023-03-14T05:16:19;2.93;;;1.03;;
4355;SDS011;64374;51.482;7.408;2023-03-14T05:19:28;2.80;;;1.17;;
4355;SDS011;64374;51.482;7.408;2023-03-14T05:22:09;1.90;;;0.70;;
4355;SDS011;64374;51.482;7.408;2023-03-14T05:24:58;3.63;;;0.50;;
4355;SDS011;64374;51.482;7.408;2023-03-14T05:27:47;0.70;;;0.60;;
4355;SDS011;64374;51.482;7.408;2023-03-14T05:30:38;2.20;;;0.70;;
4355;SDS011;64374;51.482;7.408;2023-03-14T05:33:33;1.27;;;0.50;;
4355;SDS011;64374;51.482;7.408;2023-03-14T05:36:18;1.17;;;0.63;;
4355;SDS011;64374;51.482;7.408;2023-03-14T05:39:07;2.60;;;0.70;;
4355;SDS011;64374;51.482;7.408;2023-03-14T05:41:38;0.80;;;0.73;;
4355;SDS011;64374;51.482;7.408;2023-03-14T05:44:45;1.70;;;0.60;;
4355;SDS011;64374;51.482;7.408;2023-03-14T05:47:28;1.43;;;0.83;;
4355;SDS011;64374;51.482;7.408;2023-03-14T05:50:17;0.67;;;0.50;;
4355;SDS011;64374;51.482;7.408;2023-03-14T05:53:10;1.00;;;0.67;;
4355;SDS011;64374;51.482;7.408;2023-03-14T05:55:53;2.40;;;0.60;;
4355;SDS011;64374;51.482;7.408;2023-03-14T05:58:46;1.33;;;0.60;;
4355;SDS011;64374;51.482;7.408;2023-03-14T06:01:31;2.00;;;0.90;;
4355;SDS011;64374;51.482;7.408;2023-03-14T06:04:20;1.00;;;0.80;;
4355;SDS011;64374;51.482;7.408;2023-03-14T06:06:55;0.90;;;0.90;;
4355;SDS011;64374;51.482;7.408;2023-03-14T06:09:46;2.00;;;1.07;;
4355;SDS011;64374;51.482;7.408;2023-03-14T06:12:16;9.40;;;1.50;;
4355;SDS011;64374;51.482;7.408;2023-03-14T06:14:46;2.20;;;1.13;;
4355;SDS011;64374;51.482;7.408;2023-03-14T06:17:15;6.83;;;1.30;;
4355;SDS011;64374;51.482;7.408;2023-03-14T06:19:52;10.17;;;1.87;;
4355;SDS011;64374;51.482;7.408;2023-03-14T06:22:20;2.43;;;1.10;;
4355;SDS011;64374;51.482;7.408;2023-03-14T06:24:50;7.93;;;1.40;;
4355;SDS011;64374;51.482;7.408;2023-03-14T06:27:20;5.57;;;1.63;;
4355;SDS011;64374;51.482;7.408;2023-03-14T06:29:52;2.40;;;1.30;;
4355;SDS011;64374;51.482;7.408;2023-03-14T06:32:22;1.80;;;1.30;;
4355;SDS011;64374;51.482;7.408;2023-03-14T06:34:55;1.63;;;1.10;;
4355;SDS011;64374;51.482;7.408;2023-03-14T06:37:32;2.67;;;0.90;;
4355;SDS011;64374;51.482;7.408;2023-03-14T06:40:03;3.80;;;1.17;;
4355;SDS011;64374;51.482;7.408;2023-03-14T06:43:09;2.90;;;1.10;;
4355;SDS011;64374;51.482;7.408;2023-03-14T06:45:40;1.43;;;1.20;;
4355;SDS011;64374;51.482;7.408;2023-03-14T06:48:10;4.07;;;1.00;;
4355;SDS011;64374;51.482;7.408;2023-03-14T06:50:47;3.10;;;0.90;;
4355;SDS011;64374;51.482;7.408;2023-03-14T06:53:20;3.20;;;1.20;;
4355;SDS011;64374;51.482;7.408;2023-03-14T06:55:51;3.63;;;1.13;;
4355;SDS011;64374;51.482;7.408;2023-03-14T06:58:20;4.97;;;1.10;;
4355;SDS011;64374;51.482;7.408;2023-03-14T07:00:49;1.73;;;0.90;;
4355;SDS011;64374;51.482;7.408;2023-03-14T07:03:23;1.27;;;0.80;;
4355;SDS011;64374;51.482;7.408;2023-03-14T07:05:54;5.33;;;1.50;;
4355;SDS011;64374;51.482;7.408;2023-03-14T07:08:22;3.30;;;1.20;;
4355;SDS011;64374;51.482;7.408;2023-03-14T07:10:52;1.30;;;1.00;;
4355;SDS011;64374;51.482;7.408;2023-03-14T07:13:24;3.20;;;1.20;;
4355;SDS011;64374;51.482;7.408;2023-03-14T07:16:01;1.53;;;1.00;;
4355;SDS011;64374;51.482;7.408;2023-03-14T07:18:30;3.83;;;0.97;;
4355;SDS011;64374;51.482;7.408;2023-03-14T07:21:03;2.20;;;0.80;;
4355;SDS011;64374;51.482;7.408;2023-03-14T07:23:32;2.40;;;0.80;;
4355;SDS011;64374;51.482;7.408;2023-03-14T07:26:04;3.10;;;1.10;;
4355;SDS011;64374;51.482;7.408;2023-03-14T07:28:36;1.43;;;1.13;;
4355;SDS011;64374;51.482;7.408;2023-03-14T07:31:12;4.63;;;0.90;;
4355;SDS011;64374;51.482;7.408;2023-03-14T07:33:40;1.00;;;0.80;;
4355;SDS011;64374;51.482;7.408;2023-03-14T07:36:09;1.00;;;1.00;;
4355;SDS011;64374;51.482;7.408;2023-03-14T07:38:42;0.80;;;0.80;;
4355;SDS011;64374;51.482;7.408;2023-03-14T07:41:21;0.80;;;0.80;;
4355;SDS011;64374;51.482;7.408;2023-03-14T07:44:10;4.20;;;0.90;;
4355;SDS011;64374;51.482;7.408;2023-03-14T07:46:39;1.50;;;1.10;;
4355;SDS011;64374;51.482;7.408;2023-03-14T07:49:07;3.73;;;1.00;;
4355;SDS011;64374;51.482;7.408;2023-03-14T07:51:36;1.90;;;0.80;;
4355;SDS011;64374;51.482;7.408;2023-03-14T07:54:04;1.87;;;0.97;;
4355;SDS011;64374;51.482;7.408;2023-03-14T07:56:34;2.30;;;1.00;;
4355;SDS011;64374;51.482;7.408;2023-03-14T07:59:03;0.80;;;0.80;;
4355;SDS011;64374;51.482;7.408;2023-03-14T08:01:31;0.90;;;0.80;;
4355;SDS011;64374;51.482;7.408;2023-03-14T08:03:59;1.23;;;0.70;;
4355;SDS011;64374;51.482;7.408;2023-03-14T08:06:31;2.20;;;1.00;;
4355;SDS011;64374;51.482;7.408;2023-03-14T08:08:59;1.87;;;0.80;;
4355;SDS011;64374;51.482;7.408;2023-03-14T08:11:28;0.90;;;0.90;;
4355;SDS011;64374;51.482;7.408;2023-03-14T08:13:58;0.90;;;0.77;;
4355;SDS011;64374;51.482;7.408;2023-03-14T08:16:26;0.80;;;0.80;;
4355;SDS011;64374;51.482;7.408;2023-03-14T08:18:57;1.20;;;1.10;;
4355;SDS011;64374;51.482;7.408;2023-03-14T08:21:28;1.03;;;1.00;;
4355;SDS011;64374;51.482;7.408;2023-03-14T08:23:56;1.93;;;1.20;;
4355;SDS011;64374;51.482;7.408;2023-03-14T08:26:25;2.20;;;0.93;;
4355;SDS011;64374;51.482;7.408;2023-03-14T08:28:53;1.50;;;1.40;;
4355;SDS011;64374;51.482;7.408;2023-03-14T08:31:23;1.20;;;1.10;;
4355;SDS011;64374;51.482;7.408;2023-03-14T08:33:52;2.27;;;1.67;;
4355;SDS011;64374;51.482;7.408;2023-03-14T08:36:21;2.40;;;1.67;;
4355;SDS011;64374;51.482;7.408;2023-03-14T08:38:49;4.93;;;2.13;;
4355;SDS011;64374;51.482;7.408;2023-03-14T08:41:21;2.33;;;1.93;;
4355;SDS011;64374;51.482;7.408;2023-03-14T08:43:49;2.13;;;1.67;;
4355;SDS011;64374;51.482;7.408;2023-03-14T08:46:18;1.50;;;1.40;;
4355;SDS011;64374;51.482;7.408;2023-03-14T08:48:48;1.77;;;1.67;;
4355;SDS011;64374;51.482;7.408;2023-03-14T08:51:16;2.70;;;2.00;;
4355;SDS011;64374;51.482;7.408;2023-03-14T08:53:48;3.30;;;2.80;;
4355;SDS011;64374;51.482;7.408;2023-03-14T08:56:17;2.33;;;1.97;;
4355;SDS011;64374;51.482;7.408;2023-03-14T08:58:46;1.60;;;1.50;;
4355;SDS011;64374;51.482;7.408;2023-03-14T09:01:14;1.97;;;1.87;;
4355;SDS011;64374;51.482;7.408;2023-03-14T09:03:43;2.10;;;1.47;;
4355;SDS011;64374;51.482;7.408;2023-03-14T09:06:14;1.77;;;1.67;;
4355;SDS011;64374;51.482;7.408;2023-03-14T09:08:44;1.87;;;1.70;;
4355;SDS011;64374;51.482;7.408;2023-03-14T09:11:15;2.03;;;1.60;;
4355;SDS011;64374;51.482;7.408;2023-03-14T09:13:45;2.00;;;1.83;;
4355;SDS011;64374;51.482;7.408;2023-03-14T09:16:15;1.63;;;1.50;;
4355;SDS011;64374;51.482;7.408;2023-03-14T09:18:43;1.93;;;1.53;;
4355;SDS011;64374;51.482;7.408;2023-03-14T09:21:11;1.73;;;1.63;;
4355;SDS011;64374;51.482;7.408;2023-03-14T09:23:43;2.00;;;1.30;;
4355;SDS011;64374;51.482;7.408;2023-03-14T09:26:12;2.73;;;1.70;;
4355;SDS011;64374;51.482;7.408;2023-03-14T09:28:40;1.67;;;1.40;;
4355;SDS011;64374;51.482;7.408;2023-03-14T09:31:09;5.30;;;2.07;;
4355;SDS011;64374;51.482;7.408;2023-03-14T09:33:39;3.73;;;1.77;;
4355;SDS011;64374;51.482;7.408;2023-03-14T09:36:08;2.73;;;1.00;;
4355;SDS011;64374;51.482;7.408;2023-03-14T09:38:38;3.73;;;0.90;;
4355;SDS011;64374;51.482;7.408;2023-03-14T09:41:12;1.63;;;0.70;;
4355;SDS011;64374;51.482;7.408;2023-03-14T09:43:44;0.67;;;0.67;;
4355;SDS011;64374;51.482;7.408;2023-03-14T09:46:14;0.60;;;0.60;;
4355;SDS011;64374;51.482;7.408;2023-03-14T09:48:43;0.70;;;0.70;;
4355;SDS011;64374;51.482;7.408;2023-03-14T09:51:14;1.33;;;0.80;;
4355;SDS011;64374;51.482;7.408;2023-03-14T09:53:47;1.00;;;0.93;;
4355;SDS011;64374;51.482;7.408;2023-03-14T09:56:18;0.60;;;0.60;;
4355;SDS011;64374;51.482;7.408;2023-03-14T09:58:50;0.70;;;0.70;;
4355;SDS011;64374;51.482;7.408;2023-03-14T10:01:22;1.00;;;0.60;;
4355;SDS011;64374;51.482;7.408;2023-03-14T10:03:58;0.70;;;0.70;;
4355;SDS011;64374;51.482;7.408;2023-03-14T10:06:31;0.83;;;0.83;;
4355;SDS011;64374;51.482;7.408;2023-03-14T10:09:03;1.20;;;0.70;;
4355;SDS011;64374;51.482;7.408;2023-03-14T10:11:32;0.60;;;0.60;;
4355;SDS011;64374;51.482;7.408;2023-03-14T10:14:04;1.53;;;0.90;;
4355;SDS011;64374;51.482;7.408;2023-03-14T10:16:34;0.90;;;0.67;;
4355;SDS011;64374;51.482;7.408;2023-03-14T10:19:05;1.07;;;0.73;;
4355;SDS011;64374;51.482;7.408;2023-03-14T10:21:38;0.70;;;0.70;;
4355;SDS011;64374;51.482;7.408;2023-03-14T10:24:09;0.60;;;0.60;;
4355;SDS011;64374;51.482;7.408;2023-03-14T10:26:47;3.40;;;1.00;;
4355;SDS011;64374;51.482;7.408;2023-03-14T10:29:18;1.50;;;1.00;;
4355;SDS011;64374;51.482;7.408;2023-03-14T10:31:50;3.33;;;0.97;;
4355;SDS011;64374;51.482;7.408;2023-03-14T10:34:22;5.50;;;1.10;;
4355;SDS011;64374;51.482;7.408;2023-03-14T10:36:52;2.03;;;0.80;;
4355;SDS011;64374;51.482;7.408;2023-03-14T10:39:29;1.67;;;1.23;;
4355;SDS011;64374;51.482;7.408;2023-03-14T10:42:06;1.63;;;0.70;;
4355;SDS011;64374;51.482;7.408;2023-03-14T10:44:44;1.93;;;0.73;;
4355;SDS011;64374;51.482;7.408;2023-03-14T10:47:15;1.50;;;0.80;;
4355;SDS011;64374;51.482;7.408;2023-03-14T10:49:47;1.80;;;0.77;;
4355;SDS011;64374;51.482;7.408;2023-03-14T10:52:21;2.03;;;0.80;;
4355;SDS011;64374;51.482;7.408;2023-03-14T10:55:04;1.70;;;0.80;;
4355;SDS011;64374;51.482;7.408;2023-03-14T10:57:38;1.93;;;0.87;;
4355;SDS011;64374;51.482;7.408;2023-03-14T11:00:11;0.93;;;0.80;;
4355;SDS011;64374;51.482;7.408;2023-03-14T11:02:47;1.63;;;0.90;;
4355;SDS011;64374;51.482;7.408;2023-03-14T11:05:28;2.00;;;0.90;;
4355;SDS011;64374;51.482;7.408;2023-03-14T11:08:01;2.93;;;1.00;;
4355;SDS011;64374;51.482;7.408;2023-03-14T11:10:37;2.40;;;0.80;;
4355;SDS011;64374;51.482;7.408;2023-03-14T11:13:14;3.93;;;0.90;;
4355;SDS011;64374;51.482;7.408;2023-03-14T11:15:50;0.83;;;0.80;;
4355;SDS011;64374;51.482;7.408;2023-03-14T11:18:47;2.83;;;0.87;;
4355;SDS011;64374;51.482;7.408;2023-03-14T11:21:35;1.00;;;0.90;;
4355;SDS011;64374;51.482;7.408;2023-03-14T11:24:16;3.17;;;1.30;;
4355;SDS011;64374;51.482;7.408;2023-03-14T11:26:55;1.83;;;1.30;;
4355;SDS011;64374;51.482;7.408;2023-03-14T11:29:35;5.23;;;1.33;;
4355;SDS011;64374;51.482;7.408;2023-03-14T11:32:10;6.00;;;1.10;;
4355;SDS011;64374;51.482;7.408;2023-03-14T11:34:43;3.83;;;1.90;;
4355;SDS011;64374;51.482;7.408;2023-03-14T11:37:21;1.00;;;0.90;;
4355;SDS011;64374;51.482;7.408;2023-03-14T11:39:55;1.40;;;0.80;;
4355;SDS011;64374;51.482;7.408;2023-03-14T11:42:30;3.37;;;0.90;;
4355;SDS011;64374;51.482;7.408;2023-03-14T11:45:01;2.17;;;0.97;;
4355;SDS011;64374;51.482;7.408;2023-03-14T11:47:32;1.53;;;0.80;;
4355;SDS011;64374;51.482;7.408;2023-03-14T11:50:07;1.63;;;1.10;;
4355;SDS011;64374;51.482;7.408;2023-03-14T11:52:44;4.50;;;2.10;;
4355;SDS011;64374;51.482;7.408;2023-03-14T11:55:17;10.33;;;1.53;;
4355;SDS011;64374;51.482;7.408;2023-03-14T11:57:50;10.43;;;3.03;;
4355;SDS011;64374;51.482;7.408;2023-03-14T12:00:21;1.73;;;0.90;;
4355;SDS011;64374;51.482;7.408;2023-03-14T12:02:53;1.60;;;0.70;;
4355;SDS011;64374;51.482;7.408;2023-03-14T12:05:31;3.70;;;0.90;;
4355;SDS011;64374;51.482;7.408;2023-03-14T12:08:26;6.20;;;0.80;;
4355;SDS011;64374;51.482;7.408;2023-03-14T12:11:15;2.50;;;0.80;;
4355;SDS011;64374;51.482;7.408;2023-03-14T12:13:50;1.95;;;0.90;;
4355;SDS011;64374;51.482;7.408;2023-03-14T12:16:26;0.80;;;0.70;;
4355;SDS011;64374;51.482;7.408;2023-03-14T12:24:55;2.13;;;1.00;;
4355;SDS011;64374;51.482;7.408;2023-03-14T12:27:40;1.77;;;0.60;;
4355;SDS011;64374;51.482;7.408;2023-03-14T12:30:40;2.70;;;0.80;;
4355;SDS011;64374;51.482;7.408;2023-03-14T12:35:57;1.10;;;1.00;;
4355;SDS011;64374;51.482;7.408;2023-03-14T12:38:29;6.10;;;0.90;;
4355;SDS011;64374;51.482;7.408;2023-03-14T12:41:35;2.10;;;1.23;;
4355;SDS011;64374;51.482;7.408;2023-03-14T12:50:14;1.40;;;1.00;;
4355;SDS011;64374;51.482;7.408;2023-03-14T12:55:44;4.17;;;1.97;;
4355;SDS011;64374;51.482;7.408;2023-03-14T12:58:19;2.97;;;1.33;;
4355;SDS011;64374;51.482;7.408;2023-03-14T13:00:58;2.40;;;1.10;;
4355;SDS011;64374;51.482;7.408;2023-03-14T13:03:36;2.90;;;1.00;;
4355;SDS011;64374;51.482;7.408;2023-03-14T13:06:09;5.20;;;1.40;;
4355;SDS011;64374;51.482;7.408;2023-03-14T13:08:40;3.13;;;1.13;;
4355;SDS011;64374;51.482;7.408;2023-03-14T13:11:10;2.97;;;2.10;;
4355;SDS011;64374;51.482;7.408;2023-03-14T13:13:44;2.30;;;1.10;;
4355;SDS011;64374;51.482;7.408;2023-03-14T13:16:17;4.73;;;1.40;;
4355;SDS011;64374;51.482;7.408;2023-03-14T13:18:48;7.80;;;1.03;;
4355;SDS011;64374;51.482;7.408;2023-03-14T13:21:20;4.40;;;1.63;;
4355;SDS011;64374;51.482;7.408;2023-03-14T13:23:54;8.90;;;1.80;;
4355;SDS011;64374;51.482;7.408;2023-03-14T13:26:25;8.07;;;2.83;;
4355;SDS011;64374;51.482;7.408;2023-03-14T13:29:08;5.03;;;1.47;;
4355;SDS011;64374;51.482;7.408;2023-03-14T13:31:43;8.40;;;2.90;;
4355;SDS011;64374;51.482;7.408;2023-03-14T13:34:12;6.37;;;1.93;;
4355;SDS011;64374;51.482;7.408;2023-03-14T13:36:42;6.13;;;1.70;;
4355;SDS011;64374;51.482;7.408;2023-03-14T13:39:12;5.97;;;2.03;;
4355;SDS011;64374;51.482;7.408;2023-03-14T13:41:44;10.50;;;2.40;;
4355;SDS011;64374;51.482;7.408;2023-03-14T13:44:14;15.77;;;3.77;;
4355;SDS011;64374;51.482;7.408;2023-03-14T13:46:46;15.77;;;3.00;;
4355;SDS011;64374;51.482;7.408;2023-03-14T13:49:16;19.37;;;2.80;;
4355;SDS011;64374;51.482;7.408;2023-03-14T13:51:51;24.20;;;3.70;;
4355;SDS011;64374;51.482;7.408;2023-03-14T13:54:20;12.70;;;2.90;;
4355;SDS011;64374;51.482;7.408;2023-03-14T13:56:58;14.97;;;3.63;;
4355;SDS011;64374;51.482;7.408;2023-03-14T13:59:27;14.90;;;3.30;;
4355;SDS011;64374;51.482;7.408;2023-03-14T14:01:57;14.90;;;3.57;;
4355;SDS011;64374;51.482;7.408;2023-03-14T14:04:28;8.93;;;2.40;;
4355;SDS011;64374;51.482;7.408;2023-03-14T14:07:05;18.33;;;3.93;;
4355;SDS011;64374;51.482;7.408;2023-03-14T14:09:38;11.80;;;3.23;;
4355;SDS011;64374;51.482;7.408;2023-03-14T14:12:10;8.23;;;3.20;;
4355;SDS011;64374;51.482;7.408;2023-03-14T14:14:43;9.00;;;2.20;;
4355;SDS011;64374;51.482;7.408;2023-03-14T14:17:17;7.70;;;2.87;;
4355;SDS011;64374;51.482;7.408;2023-03-14T14:19:49;12.33;;;3.20;;
4355;SDS011;64374;51.482;7.408;2023-03-14T14:22:21;16.60;;;3.90;;
4355;SDS011;64374;51.482;7.408;2023-03-14T14:24:49;14.43;;;3.03;;
4355;SDS011;64374;51.482;7.408;2023-03-14T14:27:19;10.13;;;2.30;;
4355;SDS011;64374;51.482;7.408;2023-03-14T14:29:56;14.27;;;3.20;;
4355;SDS011;64374;51.482;7.408;2023-03-14T14:32:34;9.77;;;3.60;;
4355;SDS011;64374;51.482;7.408;2023-03-14T14:35:05;15.80;;;3.47;;
4355;SDS011;64374;51.482;7.408;2023-03-14T14:37:42;10.93;;;3.00;;
4355;SDS011;64374;51.482;7.408;2023-03-14T14:40:16;14.37;;;3.20;;
4355;SDS011;64374;51.482;7.408;2023-03-14T14:42:46;14.00;;;3.33;;
4355;SDS011;64374;51.482;7.408;2023-03-14T14:45:17;8.20;;;3.40;;
4355;SDS011;64374;51.482;7.408;2023-03-14T14:47:49;8.70;;;2.50;;
4355;SDS011;64374;51.482;7.408;2023-03-14T14:50:28;9.40;;;2.27;;
4355;SDS011;64374;51.482;7.408;2023-03-14T14:52:59;13.97;;;2.77;;
4355;SDS011;64374;51.482;7.408;2023-03-14T14:55:32;11.97;;;2.43;;
4355;SDS011;64374;51.482;7.408;2023-03-14T14:58:11;13.13;;;2.57;;
4355;SDS011;64374;51.482;7.408;2023-03-14T15:00:52;8.57;;;1.97;;
4355;SDS011;64374;51.482;7.408;2023-03-14T15:03:25;10.90;;;2.17;;
4355;SDS011;64374;51.482;7.408;2023-03-14T15:05:56;4.87;;;1.87;;
4355;SDS011;64374;51.482;7.408;2023-03-14T15:08:26;10.53;;;2.10;;
4355;SDS011;64374;51.482;7.408;2023-03-14T15:10:56;5.27;;;1.90;;
4355;SDS011;64374;51.482;7.408;2023-03-14T15:13:25;15.50;;;2.77;;
4355;SDS011;64374;51.482;7.408;2023-03-14T15:15:55;10.33;;;2.77;;
4355;SDS011;64374;51.482;7.408;2023-03-14T15:18:24;9.00;;;1.70;;
4355;SDS011;64374;51.482;7.408;2023-03-14T15:20:57;7.77;;;1.93;;
4355;SDS011;64374;51.482;7.408;2023-03-14T15:23:27;9.03;;;2.47;;
4355;SDS011;64374;51.482;7.408;2023-03-14T15:25:56;7.67;;;2.00;;
4355;SDS011;64374;51.482;7.408;2023-03-14T15:28:27;8.33;;;2.00;;
4355;SDS011;64374;51.482;7.408;2023-03-14T15:30:57;10.50;;;2.60;;
4355;SDS011;64374;51.482;7.408;2023-03-14T15:33:26;8.93;;;2.70;;
4355;SDS011;64374;51.482;7.408;2023-03-14T15:35:57;9.23;;;1.90;;
4355;SDS011;64374;51.482;7.408;2023-03-14T15:38:30;4.30;;;2.10;;
4355;SDS011;64374;51.482;7.408;2023-03-14T15:40:59;10.50;;;2.97;;
4355;SDS011;64374;51.482;7.408;2023-03-14T15:43:27;5.70;;;1.63;;
4355;SDS011;64374;51.482;7.408;2023-03-14T15:45:55;14.10;;;2.00;;
4355;SDS011;64374;51.482;7.408;2023-03-14T15:48:24;5.80;;;1.80;;
4355;SDS011;64374;51.482;7.408;2023-03-14T15:50:53;5.47;;;1.90;;
4355;SDS011;64374;51.482;7.408;2023-03-14T15:53:22;7.10;;;1.40;;
4355;SDS011;64374;51.482;7.408;2023-03-14T15:55:51;6.70;;;1.67;;
4355;SDS011;64374;51.482;7.408;2023-03-14T15:58:20;4.87;;;1.80;;